Time;durP1;ratioP1;P1;durP2;ratioP2;P2;SDS_P1;SDS_P2;PMS_P1;PMS_P2;Temp;Humidity;BMP_temperature;BMP_pressure;BME280_temperature;BME280_humidity;BME280_pressure;Samples;Min_cycle;Max_cycle;Signal;HPM_P1;HPM_P2
2022/04/14 00:02:05;;;;;;;15.05;11.63;;;12.00;99.90;;;;;;5037395;28;20063;-48
2022/04/14 00:04:35;;;;;;;11.57;10.10;;;12.10;99.90;;;;;;5038704;28;20478;-48
2022/04/14 00:07:01;;;;;;;11.77;9.30;;;12.00;99.90;;;;;;5044160;28;20487;-47
2022/04/14 00:09:28;;;;;;;;;;;12.00;99.90;;;;;;5046916;28;20091;-49
2022/04/14 00:11:53;;;;;;;14.70;10.83;;;12.00;99.90;;;;;;5029962;28;19917;-46
2022/04/14 00:14:19;;;;;;;17.00;11.67;;;12.00;99.90;;;;;;5044770;28;20286;-47
2022/04/14 00:16:44;;;;;;;12.97;11.53;;;12.00;99.90;;;;;;5042606;28;20124;-47
2022/04/14 00:19:10;;;;;;;14.57;10.83;;;12.00;99.90;;;;;;5042438;28;20374;-47
2022/04/14 00:21:35;;;;;;;17.90;11.03;;;12.00;99.90;;;;;;5031003;28;20283;-46
2022/04/14 00:24:01;;;;;;;12.57;10.80;;;12.00;99.90;;;;;;5037165;28;20042;-46
2022/04/14 00:26:27;;;;;;;15.45;10.90;;;12.00;99.90;;;;;;5044378;28;20033;-48
2022/04/14 00:28:52;;;;;;;15.60;10.53;;;12.00;99.90;;;;;;5031954;28;20037;-47
2022/04/14 00:31:18;;;;;;;13.65;11.05;;;11.90;99.90;;;;;;5029554;28;20121;-47
2022/04/14 00:33:43;;;;;;;15.10;10.77;;;11.90;99.90;;;;;;5029970;28;20048;-47
2022/04/14 00:36:09;;;;;;;15.87;10.30;;;11.80;99.90;;;;;;5035099;28;20163;-48
2022/04/14 00:38:35;;;;;;;20.07;12.73;;;11.80;99.90;;;;;;5049480;28;20076;-47
2022/04/14 00:41:00;;;;;;;17.37;13.77;;;11.80;99.90;;;;;;5033988;28;20292;-47
2022/04/14 00:43:34;;;;;;;19.70;15.73;;;11.80;99.90;;;;;;5035900;28;20084;-47
2022/04/14 00:46:01;;;;;;;23.17;15.75;;;11.70;99.90;;;;;;5049335;28;20045;-47
2022/04/14 00:48:28;;;;;;;26.48;17.30;;;11.80;99.90;;;;;;5032368;28;20081;-48
2022/04/14 00:50:54;;;;;;;24.48;17.50;;;11.80;99.90;;;;;;5043248;28;20052;-47
2022/04/14 00:53:22;;;;;;;26.33;17.75;;;11.80;99.90;;;;;;5051859;28;20033;-48
2022/04/14 00:55:49;;;;;;;26.52;18.58;;;11.80;99.90;;;;;;5053263;28;20041;-47
2022/04/14 00:58:15;;;;;;;25.88;17.75;;;11.80;99.90;;;;;;5037771;28;20053;-47
2022/04/14 01:00:41;;;;;;;24.17;17.42;;;11.80;99.90;;;;;;5038111;28;20048;-48
2022/04/14 01:03:07;;;;;;;29.45;18.80;;;11.80;99.90;;;;;;5051553;28;20143;-49
2022/04/14 01:05:33;;;;;;;22.67;16.85;;;11.80;99.90;;;;;;5050064;28;20036;-47
2022/04/14 01:07:59;;;;;;;;;;;11.80;99.90;;;;;;5052550;28;20447;-47
2022/04/14 01:10:25;;;;;;;20.48;15.77;;;11.80;99.90;;;;;;5036340;28;20225;-48
2022/04/14 01:12:52;;;;;;;29.02;18.92;;;11.80;99.90;;;;;;5032939;28;20120;-48
2022/04/14 01:15:18;;;;;;;25.85;19.65;;;11.80;99.90;;;;;;5045253;28;20414;-47
2022/04/14 01:17:44;;;;;;;27.20;19.63;;;11.80;99.90;;;;;;5049581;28;20037;-47
2022/04/14 01:20:11;;;;;;;25.67;17.63;;;11.80;99.90;;;;;;5039527;28;20063;-47
2022/04/14 01:22:56;;;;;;;25.02;18.98;;;11.80;99.90;;;;;;5032686;28;20542;-46
2022/04/14 01:25:23;;;;;;;25.42;18.33;;;11.80;99.90;;;;;;5045354;28;20040;-47
2022/04/14 01:27:50;;;;;;;;;;;11.80;99.90;;;;;;5052107;28;20087;-48
2022/04/14 01:30:15;;;;;;;25.40;18.95;;;11.80;99.90;;;;;;5051796;28;19925;-48
2022/04/14 01:32:41;;;;;;;29.00;20.42;;;11.80;99.90;;;;;;5044745;28;20083;-47
2022/04/14 01:35:07;;;;;;;31.48;21.70;;;11.80;99.90;;;;;;5033646;28;20282;-49
2022/04/14 01:37:33;;;;;;;28.80;20.15;;;11.70;99.90;;;;;;5048684;28;20072;-47
2022/04/14 01:39:58;;;;;;;31.83;21.40;;;11.70;99.90;;;;;;5039376;28;20083;-47
2022/04/14 01:42:24;;;;;;;26.23;20.97;;;11.70;99.90;;;;;;5033567;28;20345;-48
2022/04/14 01:44:49;;;;;;;30.03;20.93;;;11.70;99.90;;;;;;5051201;28;20040;-47
2022/04/14 01:47:15;;;;;;;29.17;21.90;;;11.60;99.90;;;;;;5049792;28;20107;-48
2022/04/14 01:49:41;;;;;;;30.35;22.30;;;11.60;99.90;;;;;;5046120;28;20038;-46
2022/04/14 01:52:07;;;;;;;27.00;21.30;;;11.60;99.90;;;;;;5030046;28;20052;-48
2022/04/14 01:54:32;;;;;;;32.30;23.02;;;11.60;99.90;;;;;;5045170;28;20726;-51
2022/04/14 01:56:58;;;;;;;30.87;23.00;;;11.60;99.90;;;;;;5043401;28;20096;-47
2022/04/14 01:59:24;;;;;;;31.23;23.00;;;11.60;99.90;;;;;;5032329;28;20037;-47
2022/04/14 02:01:50;;;;;;;29.08;22.25;;;11.50;99.90;;;;;;5050086;28;20406;-48
2022/04/14 02:04:15;;;;;;;32.25;24.35;;;11.60;99.90;;;;;;5049890;28;20041;-48
2022/04/14 02:06:41;;;;;;;38.53;23.98;;;11.50;99.90;;;;;;5032496;28;20528;-47
2022/04/14 02:09:06;;;;;;;32.53;22.03;;;11.50;99.90;;;;;;5035522;28;20048;-47
2022/04/14 02:11:32;;;;;;;27.30;22.15;;;11.50;99.90;;;;;;5050225;28;20124;-48
2022/04/14 02:13:58;;;;;;;28.33;21.38;;;11.50;99.90;;;;;;5046714;28;20071;-48
2022/04/14 02:16:23;;;;;;;32.70;22.77;;;11.50;99.90;;;;;;5029578;28;20049;-48
2022/04/14 02:18:49;;;;;;;36.30;21.80;;;11.50;99.90;;;;;;5046905;28;20047;-46
2022/04/14 02:21:14;;;;;;;30.40;22.77;;;11.40;99.90;;;;;;5049636;28;20279;-47
2022/04/14 02:23:40;;;;;;;36.58;23.63;;;11.40;99.90;;;;;;5050405;28;20518;-47
2022/04/14 02:26:06;;;;;;;44.65;26.95;;;11.40;99.90;;;;;;5031245;28;20096;-47
2022/04/14 02:28:31;;;;;;;32.75;24.63;;;11.30;99.90;;;;;;5031132;28;20095;-47
2022/04/14 02:30:57;;;;;;;33.00;23.50;;;11.30;99.90;;;;;;5045118;28;20446;-46
2022/04/14 02:33:22;;;;;;;27.57;20.67;;;11.30;99.90;;;;;;5039174;28;20075;-47
2022/04/14 02:35:48;;;;;;;37.83;26.53;;;11.30;99.90;;;;;;5033891;28;20495;-47
2022/04/14 02:38:13;;;;;;;30.50;21.73;;;11.30;99.90;;;;;;5037835;28;20280;-47
2022/04/14 02:40:39;;;;;;;25.93;19.40;;;11.20;99.90;;;;;;5001708;28;1033470;-47
2022/04/14 02:43:04;;;;;;;22.23;17.70;;;11.20;99.90;;;;;;5034717;28;20053;-47
2022/04/14 02:45:30;;;;;;;24.37;18.63;;;11.20;99.90;;;;;;5039382;28;20067;-48
2022/04/14 02:47:56;;;;;;;21.63;17.93;;;11.20;99.90;;;;;;5031725;28;20292;-47
2022/04/14 02:50:22;;;;;;;23.52;17.75;;;11.10;99.90;;;;;;5046175;28;20110;-47
2022/04/14 02:52:48;;;;;;;22.92;18.83;;;11.10;99.90;;;;;;5043930;28;20033;-46
2022/04/14 02:55:14;;;;;;;26.63;20.02;;;11.10;99.90;;;;;;5044747;28;20120;-47
2022/04/14 02:57:40;;;;;;;23.45;17.48;;;11.10;99.90;;;;;;5031248;28;20187;-48
2022/04/14 03:00:09;;;;;;;29.13;20.83;;;11.00;99.90;;;;;;5039790;28;20037;-47
2022/04/14 03:02:35;;;;;;;30.52;22.50;;;11.00;99.90;;;;;;5032556;28;20037;-47
2022/04/14 03:05:02;;;;;;;27.77;20.52;;;11.00;99.90;;;;;;5039912;28;20044;-47
2022/04/14 03:07:28;;;;;;;25.95;19.98;;;11.00;99.90;;;;;;5031100;28;20045;-46
2022/04/14 03:09:54;;;;;;;22.38;18.50;;;10.90;99.90;;;;;;5031637;28;21185;-46
2022/04/14 03:12:19;;;;;;;20.02;17.90;;;10.90;99.90;;;;;;5032823;28;20447;-48
2022/04/14 03:14:50;;;;;;;24.02;17.83;;;10.90;99.90;;;;;;5045696;28;20245;-48
2022/04/14 03:17:15;;;;;;;20.95;16.52;;;10.80;99.90;;;;;;5029827;28;20048;-47
2022/04/14 03:19:41;;;;;;;27.95;19.60;;;10.80;99.90;;;;;;5032533;28;20038;-47
2022/04/14 03:22:07;;;;;;;23.75;18.67;;;10.70;99.90;;;;;;5045234;28;20106;-48
2022/04/14 03:24:33;;;;;;;26.33;18.67;;;10.70;99.90;;;;;;5048288;28;20076;-48
2022/04/14 03:26:58;;;;;;;24.00;19.15;;;10.70;99.90;;;;;;5037255;28;20048;-47
2022/04/14 03:29:26;;;;;;;21.50;17.47;;;10.70;99.90;;;;;;5030477;28;20515;-47
2022/04/14 03:31:51;;;;;;;21.33;16.85;;;10.70;99.90;;;;;;5043340;28;20421;-46
2022/04/14 03:34:17;;;;;;;19.93;16.70;;;10.70;99.90;;;;;;5045795;28;20051;-48
2022/04/14 03:36:42;;;;;;;16.02;14.27;;;10.70;99.90;;;;;;5030315;28;20347;-48
2022/04/14 03:39:08;;;;;;;14.33;11.97;;;10.70;99.90;;;;;;5031624;28;20437;-48
2022/04/14 03:41:34;;;;;;;17.83;13.07;;;10.70;99.90;;;;;;5036645;28;20094;-46
2022/04/14 03:43:59;;;;;;;10.27;9.27;;;10.60;99.90;;;;;;5050756;28;20502;-48
2022/04/14 03:46:25;;;;;;;14.87;13.13;;;10.60;99.90;;;;;;5034287;28;20479;-48
2022/04/14 03:48:50;;;;;;;16.83;14.57;;;10.60;99.90;;;;;;5031345;28;20848;-47
2022/04/14 03:51:16;;;;;;;17.90;14.77;;;10.60;99.90;;;;;;5030938;28;20075;-46
2022/04/14 03:53:42;;;;;;;19.20;16.67;;;10.50;99.90;;;;;;5050614;28;20075;-49
2022/04/14 03:56:08;;;;;;;19.65;16.13;;;10.50;99.90;;;;;;5038901;28;20283;-48
2022/04/14 03:58:33;;;;;;;19.48;15.93;;;10.50;99.90;;;;;;5032588;28;20037;-49
2022/04/14 04:00:59;;;;;;;22.67;13.70;;;10.50;99.90;;;;;;5047807;28;20521;-46
2022/04/14 04:03:25;;;;;;;13.83;12.03;;;10.50;99.90;;;;;;5028837;28;20295;-46
2022/04/14 04:05:51;;;;;;;15.50;12.15;;;10.40;99.90;;;;;;5031480;28;21217;-47
2022/04/14 04:08:18;;;;;;;18.17;14.88;;;10.40;99.90;;;;;;5040380;28;20045;-46
2022/04/14 04:10:44;;;;;;;19.45;15.82;;;10.40;99.90;;;;;;5036400;28;20072;-46
2022/04/14 04:13:09;;;;;;;35.45;23.83;;;10.40;99.90;;;;;;5030832;28;20072;-46
2022/04/14 04:15:35;;;;;;;47.75;30.17;;;10.40;99.90;;;;;;5029645;28;20033;-46
2022/04/14 04:18:01;;;;;;;45.72;31.13;;;10.40;99.90;;;;;;5046621;28;20494;-47
2022/04/14 04:20:27;;;;;;;51.50;33.83;;;10.40;99.90;;;;;;5042465;28;20045;-47
2022/04/14 04:22:52;;;;;;;52.27;34.87;;;10.50;99.90;;;;;;5044894;28;20106;-46
2022/04/14 04:25:18;;;;;;;47.20;31.77;;;10.50;99.90;;;;;;5048810;28;20083;-47
2022/04/14 04:27:43;;;;;;;37.97;26.47;;;10.60;99.90;;;;;;5046636;28;20041;-47
2022/04/14 04:30:09;;;;;;;41.07;28.30;;;10.60;99.90;;;;;;5049352;28;20405;-47
2022/04/14 04:32:35;;;;;;;38.65;27.88;;;10.60;99.90;;;;;;5041575;28;20037;-46
2022/04/14 04:35:04;;;;;;;42.03;28.40;;;10.50;99.90;;;;;;5048668;28;20513;-47
2022/04/14 04:37:30;;;;;;;32.63;25.00;;;10.50;99.90;;;;;;5041463;28;20406;-46
2022/04/14 04:39:56;;;;;;;34.38;22.13;;;10.50;99.90;;;;;;5047844;28;20494;-46
2022/04/14 04:42:22;;;;;;;31.77;22.77;;;10.50;99.90;;;;;;5042593;28;20037;-47
2022/04/14 04:44:47;;;;;;;38.90;25.90;;;10.50;99.90;;;;;;5039321;28;20060;-46
2022/04/14 04:47:13;;;;;;;37.95;28.00;;;10.40;99.90;;;;;;5036854;28;20045;-47
2022/04/14 04:49:39;;;;;;;39.92;28.35;;;10.40;99.90;;;;;;5047089;28;20041;-46
2022/04/14 04:52:04;;;;;;;42.20;29.80;;;10.40;99.90;;;;;;5043204;28;20076;-46
2022/04/14 04:54:30;;;;;;;50.42;31.33;;;10.40;99.90;;;;;;5029605;28;20044;-46
2022/04/14 04:56:56;;;;;;;69.28;22.50;;;10.40;99.90;;;;;;5042720;28;20080;-47
2022/04/14 04:59:21;;;;;;;29.40;21.23;;;10.30;99.90;;;;;;5029813;28;20045;-46
2022/04/14 05:01:47;;;;;;;31.53;20.50;;;10.20;99.90;;;;;;5030071;28;20040;-47
2022/04/14 05:04:13;;;;;;;35.75;21.70;;;10.20;99.90;;;;;;5049349;28;20064;-46
2022/04/14 05:06:39;;;;;;;30.55;22.98;;;10.10;99.90;;;;;;5045549;28;20406;-46
2022/04/14 05:09:05;;;;;;;44.00;29.08;;;10.00;99.90;;;;;;5038908;28;20112;-47
2022/04/14 05:11:31;;;;;;;43.03;28.38;;;10.00;99.90;;;;;;5034193;28;20049;-48
2022/04/14 05:13:56;;;;;;;34.83;26.00;;;10.00;99.90;;;;;;5039666;28;20036;-46
2022/04/14 05:16:22;;;;;;;35.70;24.67;;;10.00;99.90;;;;;;5043387;28;20526;-47
2022/04/14 05:18:48;;;;;;;32.23;24.80;;;10.00;99.90;;;;;;5029745;28;20108;-47
2022/04/14 05:21:14;;;;;;;46.17;30.25;;;10.00;99.90;;;;;;5030539;28;20292;-47
2022/04/14 05:23:40;;;;;;;48.95;33.53;;;10.00;99.90;;;;;;5034572;28;20033;-47
2022/04/14 05:26:05;;;;;;;46.38;33.17;;;10.00;99.90;;;;;;5029006;28;20522;-46
2022/04/14 05:28:31;;;;;;;49.90;32.10;;;10.10;99.90;;;;;;5037177;28;20037;-47
2022/04/14 05:30:57;;;;;;;52.97;34.70;;;10.10;99.90;;;;;;5038569;28;20040;-47
2022/04/14 05:33:22;;;;;;;39.92;30.30;;;10.20;99.90;;;;;;5036689;28;20514;-46
2022/04/14 05:35:48;;;;;;;42.47;29.23;;;10.20;99.90;;;;;;5032395;28;20495;-47
2022/04/14 05:38:14;;;;;;;48.10;32.85;;;10.20;99.90;;;;;;5049722;28;20074;-47
2022/04/14 05:40:45;;;;;;;43.42;31.85;;;10.20;99.90;;;;;;5045815;28;20464;-47
2022/04/14 05:43:30;;;;;;;49.30;33.92;;;10.20;99.90;;;;;;5051585;28;20073;-47
2022/04/14 05:45:56;;;;;;;42.60;29.23;;;10.20;99.90;;;;;;5032211;28;20045;-46
2022/04/14 05:48:22;;;;;;;38.30;28.65;;;10.10;99.90;;;;;;5045566;28;20041;-46
2022/04/14 05:50:49;;;;;;;38.42;28.25;;;10.20;99.90;;;;;;5035204;28;20498;-46
2022/04/14 05:53:16;;;;;;;38.83;28.17;;;10.20;99.90;;;;;;5033402;28;21427;-47
2022/04/14 05:55:42;;;;;;;47.88;31.92;;;10.20;99.90;;;;;;5047199;28;20048;-47
2022/04/14 05:58:08;;;;;;;44.33;30.10;;;10.20;99.90;;;;;;5045937;28;20166;-46
2022/04/14 06:00:35;;;;;;;45.40;29.83;;;10.30;99.90;;;;;;5049438;28;20044;-47
2022/04/14 06:03:02;;;;;;;45.30;33.25;;;10.30;99.90;;;;;;5046047;28;20214;-47
2022/04/14 06:05:31;;;;;;;50.33;35.17;;;10.40;99.90;;;;;;5031656;28;20044;-48
2022/04/14 06:07:58;;;;;;;46.55;34.25;;;10.40;99.90;;;;;;5041034;28;20037;-46
2022/04/14 06:10:24;;;;;;;47.78;31.88;;;10.50;99.90;;;;;;5046915;28;20449;-46
2022/04/14 06:12:50;;;;;;;48.45;34.03;;;10.50;99.90;;;;;;5043181;28;20063;-48
2022/04/14 06:15:17;;;;;;;38.70;30.20;;;10.60;99.90;;;;;;5049160;28;20558;-46
2022/04/14 06:17:44;;;;;;;40.72;30.35;;;10.70;99.90;;;;;;5045708;28;20049;-46
2022/04/14 06:20:11;;;;;;;41.17;30.63;;;10.70;99.90;;;;;;5032430;28;20470;-47
2022/04/14 06:22:38;;;;;;;43.33;30.75;;;10.80;99.90;;;;;;5036089;28;20521;-46
2022/04/14 06:25:06;;;;;;;43.53;31.05;;;10.90;99.90;;;;;;5049794;28;20044;-46
2022/04/14 06:27:32;;;;;;;41.67;31.05;;;11.00;99.90;;;;;;5036823;28;20079;-46
2022/04/14 06:29:57;;;;;;;52.35;33.67;;;11.10;99.90;;;;;;5050936;28;20099;-46
2022/04/14 06:32:23;;;;;;;58.97;38.43;;;11.10;99.90;;;;;;5035023;28;20041;-47
2022/04/14 06:34:48;;;;;;;64.60;39.20;;;11.20;99.90;;;;;;5050562;28;20037;-47
2022/04/14 06:37:14;;;;;;;60.33;40.10;;;11.30;99.90;;;;;;5049059;28;20781;-46
2022/04/14 06:39:39;;;;;;;51.07;36.43;;;11.30;99.90;;;;;;5032844;28;20041;-48
2022/04/14 06:42:06;;;;;;;54.20;39.33;;;11.40;99.90;;;;;;5034842;28;20041;-46
2022/04/14 06:44:31;;;;;;;49.70;36.15;;;11.40;99.90;;;;;;5039638;28;20069;-47
2022/04/14 06:46:57;;;;;;;50.57;36.20;;;11.50;99.90;;;;;;5049572;28;20083;-46
2022/04/14 06:49:22;;;;;;;51.67;37.13;;;11.50;99.90;;;;;;5044370;28;20117;-47
2022/04/14 06:51:48;;;;;;;49.47;37.20;;;11.60;99.90;;;;;;5031432;28;20330;-47
2022/04/14 06:54:13;;;;;;;47.43;36.40;;;11.70;99.90;;;;;;5047047;28;20045;-48
2022/04/14 06:56:39;;;;;;;48.73;33.80;;;11.70;99.90;;;;;;5047732;28;20494;-48
2022/04/14 06:59:05;;;;;;;57.00;38.90;;;11.80;99.90;;;;;;5050851;28;20510;-47
2022/04/14 07:01:30;;;;;;;54.38;38.53;;;11.80;99.90;;;;;;5034933;28;20037;-47
2022/04/14 07:03:56;;;;;;;50.58;36.92;;;11.90;99.90;;;;;;5042117;28;20037;-48
2022/04/14 07:06:21;;;;;;;54.70;36.45;;;12.00;99.90;;;;;;5049685;28;20502;-47
2022/04/14 07:08:47;;;;;;;45.30;36.55;;;12.00;99.90;;;;;;5039753;28;20037;-47
2022/04/14 07:11:13;;;;;;;45.40;33.95;;;12.10;99.90;;;;;;5040134;28;20091;-47
2022/04/14 07:13:38;;;;;;;50.27;36.27;;;12.20;99.90;;;;;;5041075;28;20402;-47
2022/04/14 07:16:04;;;;;;;45.97;33.63;;;12.30;99.90;;;;;;5046719;28;20288;-48
2022/04/14 07:18:30;;;;;;;47.00;35.50;;;12.30;99.90;;;;;;5049530;28;20104;-47
2022/04/14 07:20:55;;;;;;;51.72;35.55;;;12.40;99.90;;;;;;5051202;28;20044;-49
2022/04/14 07:23:21;;;;;;;43.13;32.70;;;12.50;99.90;;;;;;5039718;28;20128;-47
2022/04/14 07:25:47;;;;;;;47.90;36.03;;;12.60;99.90;;;;;;5029427;28;20327;-47
2022/04/14 07:28:14;;;;;;;48.85;34.70;;;12.60;99.90;;;;;;5033670;28;20292;-48
2022/04/14 07:30:40;;;;;;;53.28;35.38;;;12.70;99.90;;;;;;5030906;28;20437;-47
2022/04/14 07:33:06;;;;;;;48.58;34.65;;;12.80;99.90;;;;;;5034247;28;20052;-47
2022/04/14 07:35:32;;;;;;;;;;;12.80;99.90;;;;;;5030837;28;20033;-47
2022/04/14 07:37:58;;;;;;;47.00;33.88;;;12.90;99.90;;;;;;5036099;28;19923;-49
2022/04/14 07:40:24;;;;;;;;;;;13.00;99.90;;;;;;5035497;28;20068;-47
2022/04/14 07:42:50;;;;;;;41.30;30.60;;;13.10;99.90;;;;;;5050484;28;20382;-47
2022/04/14 07:45:17;;;;;;;34.00;27.73;;;13.10;99.90;;;;;;5050285;28;20448;-47
2022/04/14 07:47:44;;;;;;;37.88;28.13;;;13.20;99.90;;;;;;5050245;28;20041;-47
2022/04/14 07:50:15;;;;;;;37.00;29.55;;;13.30;99.90;;;;;;5049591;28;20041;-47
2022/04/14 07:52:47;;;;;;;39.70;30.35;;;13.40;99.90;;;;;;5050133;28;20548;-48
2022/04/14 07:55:24;;;;;;;40.55;26.80;;;13.50;99.90;;;;;;5049994;28;20048;-47
2022/04/14 07:57:51;;;;;;;36.42;28.02;;;13.60;99.90;;;;;;5049527;28;20033;-47
2022/04/14 08:00:17;;;;;;;36.80;26.80;;;13.70;99.90;;;;;;5050546;28;20040;-48
2022/04/14 08:02:55;;;;;;;32.55;25.02;;;13.70;99.90;;;;;;5050030;28;20043;-48
2022/04/14 08:05:38;;;;;;;36.53;27.63;;;13.80;99.90;;;;;;5049507;28;20077;-48
2022/04/14 08:08:14;;;;;;;31.45;23.88;;;13.90;99.90;;;;;;5049994;28;20512;-48
2022/04/14 08:10:41;;;;;;;34.80;28.13;;;14.00;99.90;;;;;;5049244;28;20044;-47
2022/04/14 08:13:07;;;;;;;35.35;25.58;;;14.10;99.90;;;;;;5050663;28;20309;-47
2022/04/14 08:15:33;;;;;;;33.80;24.35;;;14.10;99.90;;;;;;5049568;28;20559;-47
2022/04/14 08:17:59;;;;;;;37.53;26.88;;;14.20;99.90;;;;;;5049759;28;20037;-48
2022/04/14 08:20:26;;;;;;;33.13;24.63;;;14.20;99.90;;;;;;5048954;28;20406;-47
2022/04/14 08:22:59;;;;;;;30.27;23.58;;;14.30;99.90;;;;;;5049802;28;20043;-47
2022/04/14 08:25:30;;;;;;;32.15;22.20;;;14.30;99.90;;;;;;5049489;28;20072;-47
2022/04/14 08:27:58;;;;;;;31.23;22.83;;;14.40;99.90;;;;;;5049521;28;20336;-48
2022/04/14 08:30:25;;;;;;;29.48;21.75;;;14.50;99.90;;;;;;5050081;28;20045;-47
2022/04/14 08:32:53;;;;;;;26.05;19.85;;;14.50;99.90;;;;;;5049911;28;20120;-48
2022/04/14 08:35:19;;;;;;;28.63;21.83;;;14.60;99.90;;;;;;5049384;28;20059;-47
2022/04/14 08:37:46;;;;;;;26.50;20.70;;;14.70;99.90;;;;;;5048086;28;20131;-48
2022/04/14 08:40:14;;;;;;;33.10;21.95;;;14.80;99.90;;;;;;5049800;28;20464;-47
2022/04/14 08:42:59;;;;;;;19.23;17.17;;;14.80;99.90;;;;;;5049118;28;20410;-47
2022/04/14 08:45:31;;;;;;;25.55;18.42;;;14.90;99.90;;;;;;5049428;28;20597;-49
2022/04/14 08:47:59;;;;;;;23.30;18.10;;;15.00;99.90;;;;;;5049494;28;20560;-48
2022/04/14 08:50:26;;;;;;;26.90;16.38;;;15.00;99.90;;;;;;5048619;28;20122;-47
2022/04/14 08:52:52;;;;;;;20.73;15.68;;;15.10;99.90;;;;;;5049308;28;20041;-48
2022/04/14 08:55:18;;;;;;;22.85;16.77;;;15.10;99.90;;;;;;5048734;28;20041;-47
2022/04/14 08:57:44;;;;;;;23.48;15.80;;;15.20;99.90;;;;;;5048218;28;20335;-48
2022/04/14 09:00:11;;;;;;;;;;;15.20;99.90;;;;;;5050427;28;20033;-50
2022/04/14 09:02:37;;;;;;;26.95;21.33;;;15.30;99.90;;;;;;5049575;28;20027;-47
2022/04/14 09:05:03;;;;;;;;;;;15.40;99.90;;;;;;5048184;28;20056;-48
2022/04/14 09:07:29;;;;;;;24.42;19.70;;;15.50;99.90;;;;;;5049153;28;19916;-48
2022/04/14 09:09:54;;;;;;;29.60;20.17;;;15.60;99.90;;;;;;5052647;28;20065;-47
2022/04/14 09:12:20;;;;;;;20.20;18.15;;;15.70;99.90;;;;;;5053278;28;20068;-48
2022/04/14 09:14:47;;;;;;;21.83;18.35;;;15.70;99.90;;;;;;5052908;28;20124;-47
2022/04/14 09:17:13;;;;;;;21.33;16.83;;;15.80;99.90;;;;;;5053605;28;20060;-47
2022/04/14 09:19:39;;;;;;;20.23;16.00;;;15.90;99.90;;;;;;5053331;28;20725;-48
2022/04/14 09:22:10;;;;;;;19.75;17.17;;;15.90;99.90;;;;;;5053169;28;20037;-47
2022/04/14 09:24:49;;;;;;;19.73;15.85;;;16.00;99.90;;;;;;5052665;28;20120;-48
2022/04/14 09:27:31;;;;;;;18.95;15.13;;;16.00;99.90;;;;;;5053170;28;20044;-51
2022/04/14 09:29:59;;;;;;;16.38;13.60;;;16.00;99.90;;;;;;5053150;28;20094;-48
2022/04/14 09:32:39;;;;;;;19.48;15.43;;;16.10;99.90;;;;;;5053079;28;20537;-47
2022/04/14 09:35:14;;;;;;;16.48;14.63;;;16.20;99.90;;;;;;5052746;28;20044;-47
2022/04/14 09:37:40;;;;;;;19.17;15.15;;;16.20;99.90;;;;;;5053314;28;20041;-47
2022/04/14 09:40:10;;;;;;;20.85;16.75;;;16.30;99.90;;;;;;5051977;28;20420;-48
2022/04/14 09:42:43;;;;;;;17.88;15.93;;;16.40;99.90;;;;;;5051719;28;20090;-47
2022/04/14 09:45:29;;;;;;;20.30;14.60;;;16.40;99.90;;;;;;5052390;28;20076;-47
2022/04/14 09:48:18;;;;;;;22.30;16.35;;;16.50;99.90;;;;;;5052887;28;20421;-48
2022/04/14 09:50:47;;;;;;;16.10;14.50;;;16.60;99.90;;;;;;5053331;28;20052;-48
2022/04/14 09:53:20;;;;;;;17.65;14.98;;;16.70;99.90;;;;;;5052344;28;20039;-47
2022/04/14 09:55:51;;;;;;;18.73;13.80;;;16.80;99.90;;;;;;5051677;28;20052;-47
2022/04/14 09:58:26;;;;;;;16.40;14.02;;;16.80;99.90;;;;;;5052483;28;20040;-48
2022/04/14 10:00:56;;;;;;;17.55;15.77;;;16.90;99.90;;;;;;5053024;28;20045;-47
2022/04/14 10:03:29;;;;;;;18.02;14.15;;;17.00;99.90;;;;;;5052347;28;20414;-49
2022/04/14 10:05:57;;;;;;;16.40;14.43;;;17.10;99.90;;;;;;5051653;28;20107;-48
2022/04/14 10:08:24;;;;;;;18.50;15.60;;;17.20;99.90;;;;;;5052388;28;20048;-47
2022/04/14 10:11:09;;;;;;;15.52;13.07;;;17.40;99.90;;;;;;5051290;28;20045;-48
2022/04/14 10:13:39;;;;;;;17.98;15.45;;;17.50;99.90;;;;;;5051253;28;20041;-48
2022/04/14 10:16:05;;;;;;;16.77;12.95;;;17.60;99.90;;;;;;5051742;28;20041;-47
2022/04/14 10:18:31;;;;;;;15.85;13.18;;;17.60;99.90;;;;;;5051729;28;20103;-47
2022/04/14 10:20:57;;;;;;;15.95;14.25;;;17.50;99.90;;;;;;5052154;28;20102;-47
2022/04/14 10:23:25;;;;;;;14.93;13.38;;;17.40;99.90;;;;;;5051909;28;20029;-47
2022/04/14 10:25:53;;;;;;;17.15;15.30;;;17.30;99.90;;;;;;5051514;28;20045;-47
2022/04/14 10:28:20;;;;;;;15.63;13.98;;;17.20;99.90;;;;;;5051935;28;20091;-47
2022/04/14 10:30:56;;;;;;;13.52;12.00;;;17.20;99.90;;;;;;5052357;28;20098;-47
2022/04/14 10:33:22;;;;;;;14.73;12.10;;;17.30;99.90;;;;;;5051939;28;20041;-48
2022/04/14 10:35:52;;;;;;;14.52;12.32;;;17.20;99.90;;;;;;5051403;28;20040;-48
2022/04/14 10:38:28;;;;;;;14.70;13.18;;;17.20;99.90;;;;;;5051585;28;20045;-47
2022/04/14 10:41:03;;;;;;;13.85;11.43;;;17.30;99.90;;;;;;5051790;28;20037;-48
2022/04/14 10:43:29;;;;;;;13.20;9.82;;;17.30;99.90;;;;;;5050313;28;20045;-47
2022/04/14 10:46:00;;;;;;;16.23;11.88;;;17.50;99.90;;;;;;5051034;28;20239;-46
2022/04/14 10:48:46;;;;;;;13.38;11.98;;;17.60;99.90;;;;;;5051253;28;20033;-48
2022/04/14 10:51:29;;;;;;;14.63;10.90;;;17.80;99.90;;;;;;5051045;28;20065;-48
2022/04/14 10:54:00;;;;;;;12.40;11.10;;;17.90;99.90;;;;;;5051441;28;20048;-48
2022/04/14 10:56:34;;;;;;;11.63;10.52;;;17.90;99.90;;;;;;5051000;28;20174;-47
2022/04/14 10:59:01;;;;;;;9.68;8.65;;;18.00;99.90;;;;;;5051498;28;20044;-47
2022/04/14 11:01:50;;;;;;;9.88;8.57;;;18.00;99.90;;;;;;5051178;28;20103;-48
2022/04/14 11:04:36;;;;;;;13.82;7.68;;;18.00;99.60;;;;;;5043619;28;20052;-48
2022/04/14 11:07:13;;;;;;;10.95;9.85;;;18.10;99.60;;;;;;5050406;28;20052;-48
2022/04/14 11:09:42;;;;;;;11.85;9.80;;;18.00;99.80;;;;;;5051643;28;20048;-48
2022/04/14 11:12:27;;;;;;;9.32;8.43;;;18.00;99.60;;;;;;5050322;28;20064;-47
2022/04/14 11:15:04;;;;;;;6.88;6.22;;;18.10;99.10;;;;;;5050323;28;20032;-48
2022/04/14 11:20:38;;;;;;;6.47;5.88;;;17.90;98.50;;;;;;5051297;28;20209;-47
2022/04/14 11:23:15;;;;;;;7.18;6.45;;;18.00;98.30;;;;;;5050606;28;20032;-48
2022/04/14 11:25:49;;;;;;;7.18;5.72;;;18.00;98.50;;;;;;5050784;28;20048;-48
2022/04/14 11:28:33;;;;;;;7.15;6.35;;;17.90;98.40;;;;;;5050899;28;20044;-49
2022/04/14 11:31:00;;;;;;;7.97;6.47;;;17.90;98.60;;;;;;5050167;28;20494;-47
2022/04/14 11:33:31;;;;;;;13.13;7.28;;;18.00;99.10;;;;;;5050363;28;20112;-48
2022/04/14 11:36:20;;;;;;;10.25;8.57;;;18.10;98.00;;;;;;5050007;28;20556;-48
2022/04/14 11:38:52;;;;;;;7.30;6.25;;;18.20;99.00;;;;;;5050859;28;20072;-49
2022/04/14 11:41:53;;;;;;;6.82;6.13;;;18.20;98.90;;;;;;5050163;28;20514;-48
2022/04/14 11:44:25;;;;;;;6.45;5.80;;;18.20;98.30;;;;;;4988882;28;20578;-48
2022/04/14 11:46:54;;;;;;;8.32;5.32;;;18.30;98.70;;;;;;4972082;28;20073;-48
2022/04/14 11:49:24;;;;;;;12.43;6.07;;;18.40;98.10;;;;;;4988645;28;20068;-48
2022/04/14 11:52:04;;;;;;;4.47;4.07;;;18.60;98.20;;;;;;4988186;28;20477;-48
2022/04/14 11:54:29;;;;;;;5.97;3.30;;;18.70;97.80;;;;;;4988294;28;20051;-49
2022/04/14 11:56:57;;;;;;;6.20;4.13;;;18.80;96.80;;;;;;4988070;28;20049;-48
2022/04/14 11:59:31;;;;;;;4.38;3.90;;;18.90;96.80;;;;;;4988354;28;20035;-48
2022/04/14 12:02:14;;;;;;;5.07;3.42;;;18.90;96.00;;;;;;4988135;28;20651;-47
2022/04/14 12:04:45;;;;;;;4.40;2.20;;;18.80;95.30;;;;;;4987790;28;20046;-49
2022/04/14 12:07:12;;;;;;;7.55;3.22;;;18.80;96.00;;;;;;4988077;28;20168;-48
2022/04/14 12:09:38;;;;;;;5.15;2.83;;;18.80;95.50;;;;;;4988267;28;20506;-48
2022/04/14 12:12:10;;;;;;;;;;;18.90;95.60;;;;;;4988406;28;20038;-48
2022/04/14 12:14:39;;;;;;;2.65;2.42;;;19.00;95.00;;;;;;4987963;28;19929;-48
2022/04/14 12:17:07;;;;;;;3.60;2.38;;;19.00;95.70;;;;;;4987967;28;20500;-50
2022/04/14 12:19:47;;;;;;;3.08;1.83;;;19.10;94.30;;;;;;5010740;28;20048;-48
2022/04/14 12:22:14;;;;;;;3.53;1.10;;;19.10;93.10;;;;;;5049824;28;20037;-47
2022/04/14 12:24:46;;;;;;;7.50;1.65;;;19.10;94.30;;;;;;5049639;28;20094;-48
2022/04/14 12:27:22;;;;;;;5.15;1.88;;;19.20;93.50;;;;;;5050101;28;20032;-52
2022/04/14 12:29:52;;;;;;;4.95;2.38;;;19.20;94.30;;;;;;5048443;28;20049;-50
2022/04/14 12:32:22;;;;;;;3.50;2.30;;;19.20;94.00;;;;;;5050010;28;20045;-51
2022/04/14 12:34:48;;;;;;;3.78;2.00;;;19.30;93.80;;;;;;5049443;28;20533;-51
2022/04/14 12:37:15;;;;;;;5.78;2.65;;;19.30;93.40;;;;;;5049909;28;20037;-50
2022/04/14 12:40:01;;;;;;;6.70;2.20;;;19.30;93.10;;;;;;5050108;28;20325;-51